Time;durP1;ratioP1;P1;durP2;ratioP2;P2;SDS_P1;SDS_P2;PMS_P1;PMS_P2;Temp;Humidity;BMP_temperature;BMP_pressure;BME280_temperature;BME280_humidity;BME280_pressure;Samples;Min_cycle;Max_cycle;Signal;HPM_P1;HPM_P2
2021/06/17 00:00:39;;;;;;;8.40;5.83;;;;;;;15.86;59.59;100579.03;153989;1101;103186;-78
2021/06/17 00:03:42;;;;;;;6.30;5.63;;;;;;;15.81;59.49;100580.59;153934;1093;103169;-78
2021/06/17 00:06:45;;;;;;;7.23;5.40;;;;;;;15.77;59.57;100580.11;154040;1093;103102;-78
2021/06/17 00:09:48;;;;;;;5.95;5.35;;;;;;;15.69;59.25;100578.28;153953;1093;103117;-79
2021/06/17 00:12:52;;;;;;;7.13;5.50;;;;;;;15.65;59.44;100576.14;154026;1101;103119;-78
2021/06/17 00:15:58;;;;;;;6.70;5.40;;;;;;;15.58;59.80;100586.75;154045;1093;103129;-79
2021/06/17 00:19:02;;;;;;;6.60;5.43;;;;;;;15.51;59.71;100586.64;154105;1101;103310;-86
2021/06/17 00:22:05;;;;;;;7.47;5.40;;;;;;;15.45;59.54;100586.49;154136;1101;103192;-84
2021/06/17 00:25:10;;;;;;;6.30;5.43;;;;;;;15.40;59.91;100583.52;154101;1101;103148;-81
2021/06/17 00:28:14;;;;;;;7.33;5.73;;;;;;;15.34;59.79;100585.06;154114;1101;103112;-82
2021/06/17 00:31:17;;;;;;;8.33;5.63;;;;;;;15.25;60.05;100581.56;154244;1101;103496;-82
2021/06/17 00:34:20;;;;;;;4.70;4.20;;;;;;;15.21;59.86;100590.99;154077;1093;103231;-81
2021/06/17 00:37:23;;;;;;;6.48;4.63;;;;;;;15.21;59.88;100585.62;154125;1101;103192;-81
2021/06/17 00:40:26;;;;;;;6.55;5.10;;;;;;;15.24;59.90;100579.91;154327;1101;103192;-83
2021/06/17 00:43:29;;;;;;;6.23;5.00;;;;;;;15.26;60.04;100577.88;154067;1093;103073;-82
2021/06/17 00:46:32;;;;;;;6.17;5.10;;;;;;;15.28;60.25;100586.59;154089;1101;103142;-81
2021/06/17 00:49:36;;;;;;;7.40;5.37;;;;;;;15.25;60.02;100578.05;154810;1093;103128;-81
2021/06/17 00:52:39;;;;;;;5.77;4.97;;;;;;;15.25;60.04;100581.56;154957;1101;103192;-81
2021/06/17 00:55:45;;;;;;;7.30;5.10;;;;;;;15.25;60.35;100576.19;154108;1101;103283;-83
2021/06/17 00:58:48;;;;;;;6.67;5.50;;;;;;;15.23;60.10;100578.21;154126;1093;103144;-83
2021/06/17 01:01:51;;;;;;;8.00;5.80;;;;;;;15.18;60.30;100582.44;154289;1101;103101;-81
2021/06/17 01:04:54;;;;;;;6.83;5.67;;;;;;;15.13;60.18;100580.28;154057;1101;103293;-81
2021/06/17 01:08:30;;;;;;;7.83;6.00;;;;;;;15.07;60.19;100573.76;154066;1101;103247;-80
2021/06/17 01:11:40;;;;;;;6.83;5.20;;;;;;;15.01;60.43;100574.46;154057;1093;103184;-82
2021/06/17 01:14:49;;;;;;;7.37;5.80;;;;;;;14.99;60.21;100581.86;154083;1101;103560;-80
2021/06/17 01:17:59;;;;;;;7.30;5.75;;;;;;;14.95;60.18;100579.67;154102;1101;103196;-80
2021/06/17 01:21:11;;;;;;;8.17;5.83;;;;;;;14.91;60.59;100576.49;154040;1094;103298;-77
2021/06/17 01:24:50;;;;;;;9.10;5.90;;;;;;;14.84;60.32;100573.67;154002;1101;103154;-83
2021/06/17 01:28:12;;;;;;;7.27;5.70;;;;;;;14.80;60.44;100582.23;154131;1093;103131;-80
2021/06/17 01:31:18;;;;;;;6.23;5.13;;;;;;;14.78;60.72;100579.75;154131;1101;103192;-84
2021/06/17 01:34:23;;;;;;;6.13;4.77;;;;;;;14.76;60.31;100576.40;154061;1101;104574;-79
2021/06/17 01:37:28;;;;;;;5.60;4.87;;;;;;;14.77;60.83;100583.43;154069;1101;103234;-79
2021/06/17 01:40:32;;;;;;;6.97;5.23;;;;;;;14.80;60.77;100576.86;154039;1101;103129;-79
2021/06/17 01:43:37;;;;;;;6.63;5.20;;;;;;;14.83;60.50;100576.53;154023;1101;103123;-78
2021/06/17 01:46:41;;;;;;;6.90;5.67;;;;;;;14.82;60.48;100577.53;153951;1101;103139;-78
2021/06/17 01:49:45;;;;;;;7.77;5.60;;;;;;;14.83;60.43;100584.59;153982;1101;103129;-78
2021/06/17 01:52:51;;;;;;;7.40;5.30;;;;;;;14.79;60.62;100572.52;153998;1093;103365;-76
2021/06/17 01:55:58;;;;;;;6.20;5.60;;;;;;;14.76;60.58;100579.09;154009;1101;103150;-79
2021/06/17 01:59:05;;;;;;;6.77;5.80;;;;;;;14.71;60.97;100579.58;154014;1093;103628;-81
2021/06/17 02:02:12;;;;;;;6.03;5.40;;;;;;;14.66;60.64;100573.88;154225;1101;103538;-79
2021/06/17 02:05:16;;;;;;;6.48;5.75;;;;;;;14.63;60.84;100576.09;153997;1101;103144;-76
2021/06/17 02:08:22;;;;;;;6.77;5.47;;;;;;;14.60;60.89;100565.69;154001;1101;103328;-77
2021/06/17 02:11:27;;;;;;;6.93;6.17;;;;;;;14.54;60.84;100577.92;154001;1093;103143;-76
2021/06/17 02:14:31;;;;;;;6.83;5.50;;;;;;;14.50;60.95;100581.95;154005;1093;103196;-75
2021/06/17 02:17:35;;;;;;;6.30;5.53;;;;;;;14.47;60.87;100580.46;153999;1101;103192;-78
2021/06/17 02:20:40;;;;;;;7.00;5.47;;;;;;;14.45;61.01;100582.48;154073;1093;103214;-75
2021/06/17 02:23:48;;;;;;;6.73;5.30;;;;;;;14.46;61.33;100583.31;154058;1093;103180;-73
2021/06/17 02:26:56;;;;;;;5.97;4.87;;;;;;;14.45;61.26;100589.67;154049;1101;103125;-75
2021/06/17 02:30:05;;;;;;;6.40;4.57;;;;;;;14.48;61.01;100578.61;154045;1101;103192;-76
2021/06/17 02:33:12;;;;;;;7.00;4.70;;;;;;;14.54;61.11;100586.80;154081;1101;103112;-75
2021/06/17 02:36:22;;;;;;;6.70;5.20;;;;;;;14.60;61.16;100588.00;154140;1101;103468;-75
2021/06/17 02:39:28;;;;;;;7.00;4.83;;;;;;;14.68;61.32;100592.52;154069;1093;103198;-74
2021/06/17 02:42:34;;;;;;;12.10;5.40;;;;;;;14.75;61.18;100590.83;154055;1101;103130;-75
2021/06/17 02:45:38;;;;;;;6.43;5.47;;;;;;;14.81;61.27;100587.45;154022;1101;103195;-74
2021/06/17 02:48:41;;;;;;;6.00;5.20;;;;;;;14.83;61.32;100587.28;154112;1093;103200;-74
2021/06/17 02:51:45;;;;;;;7.03;5.35;;;;;;;14.89;61.30;100586.58;154181;1101;103211;-74
2021/06/17 02:54:48;;;;;;;7.13;5.20;;;;;;;14.94;61.00;100594.97;153954;1101;103215;-73
2021/06/17 02:58:01;;;;;;;6.63;5.18;;;;;;;14.99;61.59;100591.75;154029;1101;103192;-74
2021/06/17 03:01:11;;;;;;;6.20;5.20;;;;;;;15.06;61.42;100588.19;153988;1101;103187;-72
2021/06/17 03:04:21;;;;;;;8.45;5.45;;;;;;;15.12;61.33;100592.86;153939;1093;103128;-73
2021/06/17 03:07:27;;;;;;;6.70;5.20;;;;;;;15.21;61.32;100596.38;153946;1101;103168;-74
2021/06/17 03:10:32;;;;;;;6.50;5.15;;;;;;;15.33;61.44;100594.13;154002;1101;103186;-76
2021/06/17 03:13:37;;;;;;;6.00;4.67;;;;;;;15.41;61.69;100595.94;154034;1093;103125;-77
2021/06/17 03:16:43;;;;;;;5.17;4.10;;;;;;;15.54;61.60;100601.58;156000;1101;103102;-74
2021/06/17 03:19:49;;;;;;;5.73;4.73;;;;;;;15.78;61.21;100595.25;154002;1101;103114;-79
2021/06/17 03:22:55;;;;;;;6.47;5.23;;;;;;;16.03;61.55;100590.52;154099;1101;103104;-71
2021/06/17 03:26:04;;;;;;;6.70;5.30;;;;;;;16.28;61.20;100591.14;154685;1101;103130;-74
2021/06/17 03:29:10;;;;;;;6.17;5.03;;;;;;;16.48;61.09;100596.01;154001;1101;103149;-73
2021/06/17 03:32:14;;;;;;;6.47;5.07;;;;;;;16.67;61.31;100587.38;153968;1101;103218;-74
2021/06/17 03:35:19;;;;;;;6.00;4.90;;;;;;;16.89;61.04;100595.59;153945;1101;103128;-73
2021/06/17 03:38:23;;;;;;;5.47;4.90;;;;;;;17.09;60.79;100590.48;153982;1093;103101;-74
2021/06/17 03:41:29;;;;;;;5.17;4.60;;;;;;;17.29;60.88;100595.29;154051;1093;103300;-73
2021/06/17 03:44:34;;;;;;;5.50;4.67;;;;;;;17.41;60.68;100591.06;154004;1094;103218;-74
2021/06/17 03:47:37;;;;;;;6.23;4.90;;;;;;;17.57;60.92;100585.45;154064;1101;103192;-74
2021/06/17 03:50:43;;;;;;;5.70;4.63;;;;;;;17.78;60.61;100592.73;154056;1101;103107;-72
2021/06/17 03:53:47;;;;;;;5.90;4.80;;;;;;;17.99;60.70;100585.67;154039;1094;103544;-74
2021/06/17 03:56:50;;;;;;;5.10;4.33;;;;;;;18.16;60.63;100597.05;153972;1093;103276;-74
2021/06/17 03:59:56;;;;;;;4.33;3.93;;;;;;;18.38;60.67;100596.00;154103;1101;103157;-73
2021/06/17 04:03:05;;;;;;;5.20;4.07;;;;;;;18.62;60.69;100596.58;153937;1101;103588;-74
2021/06/17 04:06:11;;;;;;;5.40;4.47;;;;;;;18.86;60.37;100586.34;153997;1101;103668;-74
2021/06/17 04:09:15;;;;;;;5.97;4.73;;;;;;;19.11;60.29;100587.54;153967;1101;103259;-73
2021/06/17 04:12:21;;;;;;;6.53;4.50;;;;;;;19.30;60.27;100594.05;153973;1093;103057;-75
2021/06/17 04:15:26;;;;;;;6.85;4.75;;;;;;;19.52;60.33;100588.52;154015;1101;103120;-73
2021/06/17 04:18:31;;;;;;;5.50;4.97;;;;;;;19.77;60.13;100586.11;154037;1101;103209;-72
2021/06/17 04:21:35;;;;;;;5.93;4.70;;;;;;;19.97;59.99;100586.95;153974;1101;103192;-73
2021/06/17 04:24:42;;;;;;;6.67;5.53;;;;;;;20.15;59.95;100580.09;154029;1101;103155;-74
2021/06/17 04:27:47;;;;;;;9.63;8.50;;;;;;;20.31;59.57;100590.52;153979;1093;103262;-74
2021/06/17 04:30:51;;;;;;;7.50;6.70;;;;;;;20.46;59.41;100581.33;154044;1101;103124;-73
2021/06/17 04:33:55;;;;;;;7.97;6.20;;;;;;;20.58;59.40;100582.37;154097;1101;103195;-75
2021/06/17 04:36:58;;;;;;;7.70;5.47;;;;;;;20.76;59.26;100581.73;154057;1093;103138;-72
2021/06/17 04:40:01;;;;;;;8.60;7.40;;;;;;;20.91;58.91;100585.02;154137;1101;103196;-74
2021/06/17 04:43:05;;;;;;;6.47;5.77;;;;;;;21.01;58.99;100584.58;154101;1101;103262;-74
2021/06/17 04:46:09;;;;;;;5.83;5.27;;;;;;;21.14;58.64;100587.24;154050;1100;103192;-75
2021/06/17 04:49:15;;;;;;;7.87;5.93;;;;;;;21.28;58.88;100595.33;154548;1098;103184;-74
2021/06/17 04:52:23;;;;;;;6.80;6.07;;;;;;;21.42;58.75;100596.95;154602;1098;103092;-75
2021/06/17 04:55:26;;;;;;;8.03;5.63;;;;;;;21.52;58.51;100600.06;154643;1098;103155;-75
2021/06/17 04:58:31;;;;;;;7.53;5.83;;;;;;;21.62;58.34;100591.44;154609;1098;103562;-74
2021/06/17 05:01:35;;;;;;;5.97;5.37;;;;;;;21.74;58.41;100589.68;154656;1098;103624;-74
2021/06/17 05:04:39;;;;;;;9.63;6.57;;;;;;;21.85;58.31;100599.03;154589;1093;103121;-73
2021/06/17 05:10:48;;;;;;;6.10;5.50;;;;;;;21.93;57.93;100597.93;154631;1093;103190;-75
2021/06/17 05:11:16;;;;;;;6.40;5.80;;;;;;;22.02;57.91;100601.20;154730;1098;103134;-74
2021/06/17 05:14:19;;;;;;;7.03;5.77;;;;;;;22.12;57.39;100605.10;154604;1093;103487;-74
2021/06/17 05:17:22;;;;;;;8.00;5.50;;;;;;;22.17;57.37;100598.98;154689;1093;103136;-74
2021/06/17 05:20:26;;;;;;;8.37;6.93;;;;;;;22.24;57.15;100594.34;154602;1098;103484;-75
2021/06/17 05:23:30;;;;;;;7.40;5.40;;;;;;;22.29;57.09;100597.27;154585;1098;103688;-74
2021/06/17 05:26:34;;;;;;;5.83;5.23;;;;;;;22.38;56.41;100599.70;154621;1098;103165;-76
2021/06/17 05:29:37;;;;;;;5.80;4.60;;;;;;;22.48;56.48;100598.15;154568;1098;103249;-74
2021/06/17 05:32:42;;;;;;;5.47;4.20;;;;;;;22.61;56.48;100607.23;154626;1093;103128;-73
2021/06/17 05:35:46;;;;;;;6.77;4.23;;;;;;;22.72;56.36;100601.88;154664;1093;103130;-78
2021/06/17 05:38:51;;;;;;;5.80;4.53;;;;;;;22.79;55.88;100599.10;154714;1093;103306;-79
2021/06/17 05:41:54;;;;;;;6.23;4.70;;;;;;;22.84;55.94;100598.41;154706;1098;103244;-81
2021/06/17 05:44:57;;;;;;;7.10;4.75;;;;;;;22.92;55.73;100596.23;154610;1098;103218;-82
2021/06/17 05:48:00;;;;;;;7.33;4.60;;;;;;;22.97;55.44;100600.98;154708;1098;103189;-82
2021/06/17 05:51:04;;;;;;;5.30;4.47;;;;;;;23.00;54.85;100597.83;154248;1098;103187;-82
2021/06/17 05:54:07;;;;;;;5.73;4.20;;;;;;;23.06;55.11;100602.39;154103;1099;103112;-81
2021/06/17 05:57:11;;;;;;;5.80;4.10;;;;;;;23.12;55.10;100608.81;154000;1101;103230;-82
2021/06/17 06:00:16;;;;;;;5.23;4.10;;;;;;;23.14;52.49;100623.03;154025;1101;103179;-81
2021/06/17 06:03:19;;;;;;;5.65;4.30;;;;;;;23.17;54.31;100621.73;154605;1098;103188;-81
2021/06/17 06:06:22;;;;;;;5.70;4.05;;;;;;;23.17;54.45;100624.45;154842;1093;104699;-82
2021/06/17 06:09:25;;;;;;;6.20;4.30;;;;;;;23.16;54.20;100622.80;154379;1093;103153;-81
2021/06/17 06:12:28;;;;;;;4.90;4.00;;;;;;;23.17;53.92;100629.89;154211;1093;103143;-82
2021/06/17 06:15:33;;;;;;;4.53;3.80;;;;;;;23.24;54.49;100630.66;154705;1098;103256;-82
2021/06/17 06:18:36;;;;;;;5.30;4.10;;;;;;;23.31;53.90;100631.42;154697;1098;103187;-82
2021/06/17 06:21:39;;;;;;;7.10;4.20;;;;;;;23.32;53.44;100623.00;154658;1093;103187;-79
2021/06/17 06:24:43;;;;;;;7.73;4.13;;;;;;;23.32;53.77;100627.62;154571;1094;103241;-82
2021/06/17 06:27:46;;;;;;;6.57;4.40;;;;;;;23.33;53.34;100637.47;154342;1099;103170;-81
2021/06/17 06:30:50;;;;;;;4.83;4.08;;;;;;;23.33;53.69;100641.02;154559;1098;103280;-80
2021/06/17 06:33:53;;;;;;;4.53;3.73;;;;;;;23.36;52.87;100655.23;154658;1098;103141;-82
2021/06/17 06:36:56;;;;;;;5.70;3.90;;;;;;;23.37;53.21;100644.11;154791;1093;103136;-82
2021/06/17 06:39:59;;;;;;;4.93;3.70;;;;;;;23.42;53.33;100638.83;154678;1098;103187;-82
2021/06/17 06:43:03;;;;;;;5.47;3.70;;;;;;;23.46;52.79;100639.17;154613;1098;103149;-82
2021/06/17 06:46:06;;;;;;;4.65;3.70;;;;;;;23.48;53.01;100643.34;154601;1098;103288;-82
2021/06/17 06:49:09;;;;;;;4.73;3.45;;;;;;;23.50;52.72;100641.23;154751;1093;103197;-82
2021/06/17 06:52:13;;;;;;;5.17;3.60;;;;;;;23.57;52.97;100645.75;154723;1093;103145;-81
2021/06/17 06:55:16;;;;;;;4.15;3.45;;;;;;;23.61;52.83;100644.23;154677;1093;103133;-82
2021/06/17 06:58:19;;;;;;;3.60;3.20;;;;;;;23.65;52.41;100653.59;154680;1098;103184;-82
2021/06/17 07:01:22;;;;;;;5.25;2.98;;;;;;;23.68;52.41;100644.98;154732;1098;103258;-82
2021/06/17 07:04:25;;;;;;;4.75;3.40;;;;;;;23.75;52.51;100651.17;154562;1093;103192;-82
2021/06/17 07:07:28;;;;;;;4.33;3.60;;;;;;;23.82;52.13;100653.83;154499;1098;103195;-81
2021/06/17 07:10:31;;;;;;;6.10;3.03;;;;;;;23.84;51.96;100652.52;154562;1093;103136;-82
2021/06/17 07:13:34;;;;;;;4.10;3.20;;;;;;;23.95;52.07;100652.81;154756;1098;103122;-82
2021/06/17 07:16:37;;;;;;;3.80;3.03;;;;;;;24.00;51.75;100661.11;154582;1098;103202;-82
2021/06/17 07:19:41;;;;;;;4.40;3.40;;;;;;;24.05;51.97;100669.43;154603;1098;103243;-81
2021/06/17 07:22:44;;;;;;;4.80;3.67;;;;;;;24.08;51.46;100675.25;154650;1093;103147;-82
2021/06/17 07:25:47;;;;;;;4.57;3.07;;;;;;;24.12;51.58;100675.63;154809;1098;103135;-82
2021/06/17 07:28:51;;;;;;;5.85;3.40;;;;;;;24.21;51.49;100667.92;154344;1101;103123;-84
2021/06/17 07:31:54;;;;;;;4.47;3.40;;;;;;;24.26;51.42;100670.80;154286;1101;103280;-85
2021/06/17 07:34:57;;;;;;;6.83;3.83;;;;;;;24.33;51.30;100666.08;154095;1093;103560;-82
2021/06/17 07:38:00;;;;;;;4.37;3.40;;;;;;;24.42;50.99;100663.82;153983;1093;103139;-81
2021/06/17 07:41:03;;;;;;;5.10;3.80;;;;;;;24.45;51.27;100669.64;154179;1099;103132;-82
2021/06/17 07:44:07;;;;;;;5.40;4.03;;;;;;;24.50;51.39;100671.69;154165;1099;103493;-81
2021/06/17 07:47:10;;;;;;;6.03;4.23;;;;;;;24.61;51.38;100670.05;154022;1093;103221;-82
2021/06/17 07:50:13;;;;;;;5.28;4.18;;;;;;;24.67;51.24;100671.83;154024;1101;103185;-82
2021/06/17 07:53:16;;;;;;;5.30;3.73;;;;;;;24.71;50.81;100672.19;153958;1094;103187;-81
2021/06/17 07:56:20;;;;;;;7.23;4.17;;;;;;;24.70;51.08;100668.63;154031;1101;103314;-84
2021/06/17 07:59:23;;;;;;;5.97;4.23;;;;;;;24.72;50.67;100668.41;153996;1101;103104;-81
2021/06/17 08:02:26;;;;;;;6.17;4.77;;;;;;;24.77;50.51;100663.05;153963;1101;103253;-80
2021/06/17 08:05:30;;;;;;;5.73;4.43;;;;;;;24.82;50.54;100666.72;153991;1101;103087;-83
2021/06/17 08:08:33;;;;;;;4.60;4.10;;;;;;;24.84;50.77;100667.31;153973;1093;103139;-81
2021/06/17 08:11:37;;;;;;;6.70;4.77;;;;;;;24.94;50.77;100657.70;153970;1101;103563;-80
2021/06/17 08:14:40;;;;;;;5.13;4.20;;;;;;;25.01;50.77;100675.63;153989;1093;103110;-80
2021/06/17 08:17:43;;;;;;;5.00;4.50;;;;;;;25.04;50.82;100669.70;154082;1101;103131;-79
2021/06/17 08:20:46;;;;;;;5.50;4.20;;;;;;;25.08;50.47;100664.59;153976;1101;103141;-79
2021/06/17 08:23:50;;;;;;;5.07;4.57;;;;;;;25.08;50.54;100667.32;153957;1101;103114;-82
2021/06/17 08:26:53;;;;;;;5.70;4.40;;;;;;;25.08;49.91;100673.61;154178;1098;103192;-80
2021/06/17 08:29:56;;;;;;;5.77;4.87;;;;;;;25.08;50.27;100668.14;153964;1101;103162;-81
2021/06/17 08:33:00;;;;;;;7.10;4.83;;;;;;;25.16;50.54;100683.33;154038;1101;103270;-79
2021/06/17 08:36:07;;;;;;;6.30;5.10;;;;;;;25.23;50.47;100681.34;154016;1101;103211;-81
2021/06/17 08:39:10;;;;;;;7.30;5.27;;;;;;;25.31;49.54;100676.55;153947;1093;103199;-81
2021/06/17 08:42:13;;;;;;;6.83;5.10;;;;;;;25.37;50.24;100675.62;154215;1098;103111;-80
2021/06/17 08:45:16;;;;;;;5.25;4.75;;;;;;;25.42;49.52;100667.51;154040;1093;103190;-78
2021/06/17 08:48:19;;;;;;;6.13;5.10;;;;;;;25.44;49.77;100668.95;153987;1094;103266;-81
2021/06/17 08:51:23;;;;;;;7.00;5.57;;;;;;;25.48;49.46;100663.80;153975;1094;103133;-82
2021/06/17 08:54:29;;;;;;;6.70;5.70;;;;;;;25.52;49.26;100672.35;153996;1101;103126;-81
2021/06/17 08:57:32;;;;;;;13.03;11.50;;;;;;;25.51;49.51;100674.27;154342;1093;103192;-79
2021/06/17 09:00:41;;;;;;;8.10;6.67;;;;;;;25.55;49.14;100677.34;154345;1098;103152;-79
2021/06/17 09:03:45;;;;;;;6.53;5.90;;;;;;;25.65;49.12;100683.86;154720;1094;103298;-79
2021/06/17 09:07:06;;;;;;;7.43;5.40;;;;;;;25.68;48.78;100690.73;154711;1093;103486;-80
2021/06/17 09:10:11;;;;;;;6.60;5.90;;;;;;;25.77;48.75;100694.74;154675;1094;103142;-80
2021/06/17 09:13:14;;;;;;;5.97;4.73;;;;;;;25.82;48.45;100694.83;154769;1098;103512;-83
2021/06/17 09:16:26;;;;;;;7.55;6.10;;;;;;;25.85;48.24;100696.26;154269;1098;103195;-80
2021/06/17 09:19:41;;;;;;;6.43;5.07;;;;;;;25.85;48.06;100694.34;154099;1101;103347;-83
2021/06/17 09:22:44;;;;;;;7.60;4.90;;;;;;;25.90;48.49;100696.34;154254;1101;103192;-81
2021/06/17 09:25:49;;;;;;;5.90;5.10;;;;;;;26.00;48.10;100690.26;154287;1098;103129;-75
2021/06/17 09:28:57;;;;;;;7.80;5.33;;;;;;;26.11;48.49;100692.11;154118;1101;103095;-75
2021/06/17 09:32:00;;;;;;;6.47;4.80;;;;;;;26.23;48.37;100687.42;154185;1098;103247;-74
2021/06/17 09:35:15;;;;;;;7.53;4.90;;;;;;;26.36;47.54;100688.99;153963;1101;103182;-77
2021/06/17 09:38:19;;;;;;;7.80;5.47;;;;;;;26.40;47.34;100679.21;154661;1098;103189;-77
2021/06/17 09:41:35;;;;;;;6.03;4.90;;;;;;;26.51;47.13;100685.70;154614;1098;103196;-77
2021/06/17 09:44:41;;;;;;;5.77;4.80;;;;;;;26.51;47.34;100682.95;154085;1100;103121;-77
2021/06/17 09:47:44;;;;;;;6.10;4.83;;;;;;;26.57;46.97;100689.34;154023;1100;103128;-77
2021/06/17 09:50:47;;;;;;;6.27;4.40;;;;;;;26.60;46.91;100681.50;153968;1101;103208;-77
2021/06/17 09:53:52;;;;;;;5.63;4.23;;;;;;;26.57;46.81;100679.22;154012;1101;103125;-77
2021/06/17 09:57:00;;;;;;;5.57;4.70;;;;;;;26.60;47.00;100683.42;153936;1101;103125;-77
2021/06/17 10:00:10;;;;;;;5.37;4.80;;;;;;;26.62;46.30;100673.87;153986;1101;103204;-78
2021/06/17 10:03:16;;;;;;;6.10;4.57;;;;;;;26.61;46.62;100669.45;154109;1093;103314;-76
2021/06/17 10:06:20;;;;;;;4.70;4.13;;;;;;;26.63;46.20;100671.95;154002;1101;103714;-76
2021/06/17 10:09:23;;;;;;;7.50;4.80;;;;;;;26.57;46.58;100665.53;154013;1093;103055;-76
2021/06/17 10:12:26;;;;;;;7.67;4.63;;;;;;;26.51;45.97;100671.19;153984;1093;103189;-77
2021/06/17 10:15:30;;;;;;;4.53;4.08;;;;;;;26.33;45.83;100648.47;153915;1101;103128;-77
2021/06/17 10:18:35;;;;;;;6.50;4.50;;;;;;;26.18;45.99;100649.03;153961;1101;103141;-77
2021/06/17 10:21:39;;;;;;;5.95;4.55;;;;;;;26.17;45.96;100655.56;153944;1101;103277;-77
2021/06/17 10:24:42;;;;;;;4.93;4.00;;;;;;;26.23;46.10;100645.55;154092;1101;103149;-76
2021/06/17 10:27:47;;;;;;;5.23;4.33;;;;;;;26.28;45.20;100653.02;153960;1101;103218;-77
2021/06/17 10:30:50;;;;;;;4.20;3.80;;;;;;;26.32;45.41;100643.23;153923;1093;103111;-77
2021/06/17 10:33:53;;;;;;;4.90;4.10;;;;;;;26.41;45.92;100649.97;154003;1093;103227;-77
2021/06/17 10:37:20;;;;;;;5.70;4.40;;;;;;;26.49;45.47;100660.48;153972;1101;103251;-77
2021/06/17 10:40:25;;;;;;;5.10;4.23;;;;;;;26.57;45.37;100657.33;153991;1101;103202;-77
2021/06/17 10:43:28;;;;;;;6.17;4.17;;;;;;;26.63;45.06;100653.61;153979;1099;103148;-78
2021/06/17 10:46:44;;;;;;;5.40;4.07;;;;;;;26.61;44.71;100652.22;153971;1091;103198;-77
2021/06/17 10:50:04;;;;;;;5.73;4.20;;;;;;;26.56;44.99;100650.21;154018;1101;103192;-77
2021/06/17 10:53:46;;;;;;;5.53;4.67;;;;;;;26.54;44.71;100662.46;154006;1094;103246;-77
2021/06/17 10:56:50;;;;;;;3.95;3.55;;;;;;;26.53;44.48;100653.43;154003;1101;103189;-77
2021/06/17 10:59:53;;;;;;;3.90;3.57;;;;;;;26.36;44.21;100649.88;153994;1093;103477;-77
2021/06/17 11:02:58;;;;;;;4.83;3.90;;;;;;;26.22;44.22;100644.72;154013;1093;103104;-77
2021/06/17 11:06:01;;;;;;;4.33;3.80;;;;;;;26.20;44.32;100651.53;153977;1101;103495;-77
2021/06/17 11:09:36;;;;;;;5.20;4.40;;;;;;;26.24;44.01;100648.04;153954;1101;103289;-77
2021/06/17 11:13:02;;;;;;;4.37;3.60;;;;;;;26.30;43.87;100645.40;154024;1093;103104;-77
2021/06/17 11:16:06;;;;;;;4.10;3.70;;;;;;;26.40;44.20;100646.38;153984;1093;103190;-78
2021/06/17 11:19:12;;;;;;;4.63;3.60;;;;;;;26.50;43.81;100642.97;153976;1093;103100;-77
2021/06/17 11:22:34;;;;;;;5.17;3.87;;;;;;;26.53;43.93;100641.66;154027;1101;103230;-77
2021/06/17 11:25:46;;;;;;;4.50;3.47;;;;;;;26.60;43.93;100631.41;154011;1101;103416;-76
2021/06/17 11:28:53;;;;;;;4.57;3.77;;;;;;;26.58;43.61;100631.63;153984;1101;103215;-77
2021/06/17 11:31:56;;;;;;;5.70;3.40;;;;;;;26.46;42.77;100611.72;153982;1093;103133;-77
2021/06/17 11:34:59;;;;;;;4.10;3.50;;;;;;;26.39;42.87;100619.29;153956;1101;103097;-76
2021/06/17 11:38:05;;;;;;;4.17;3.70;;;;;;;26.45;43.17;100623.76;154043;1093;103183;-77
2021/06/17 11:41:14;;;;;;;4.40;3.87;;;;;;;26.54;42.77;100613.20;154012;1101;104686;-76
2021/06/17 11:44:22;;;;;;;4.40;3.50;;;;;;;26.52;42.55;100616.22;153977;1093;103196;-77
2021/06/17 11:47:25;;;;;;;5.00;3.70;;;;;;;26.58;42.92;100600.67;153973;1093;103192;-77
2021/06/17 11:50:29;;;;;;;6.23;3.70;;;;;;;26.60;42.42;100613.08;153947;1101;103305;-77
2021/06/17 11:53:32;;;;;;;4.83;3.70;;;;;;;26.60;41.98;100598.57;153949;1101;103195;-77
2021/06/17 11:56:35;;;;;;;3.93;3.50;;;;;;;26.58;41.91;100593.31;153951;1101;103262;-77
2021/06/17 11:59:40;;;;;;;5.23;3.60;;;;;;;26.63;42.34;100598.87;153992;1093;103190;-77
2021/06/17 12:02:44;;;;;;;3.47;3.17;;;;;;;26.70;42.50;100595.16;153981;1101;103203;-77
2021/06/17 12:05:48;;;;;;;3.50;3.20;;;;;;;26.71;42.34;100591.31;153962;1101;103167;-77
2021/06/17 12:09:07;;;;;;;3.87;3.50;;;;;;;26.81;41.93;100605.14;153996;1101;103142;-77
2021/06/17 12:12:15;;;;;;;3.80;3.50;;;;;;;26.83;41.78;100587.39;154012;1101;103299;-77
2021/06/17 12:15:21;;;;;;;3.47;3.10;;;;;;;26.83;41.84;100594.79;154007;1101;103134;-77
2021/06/17 12:18:24;;;;;;;4.93;3.30;;;;;;;26.89;41.53;100601.13;153986;1101;103110;-77
2021/06/17 12:21:31;;;;;;;3.63;3.27;;;;;;;26.95;42.08;100603.70;153955;1101;103119;-76
2021/06/17 12:24:35;;;;;;;3.00;2.70;;;;;;;27.06;41.71;100606.56;153979;1093;103208;-77
2021/06/17 12:27:45;;;;;;;3.67;3.20;;;;;;;27.07;40.79;100605.50;154016;1093;103363;-76
2021/06/17 12:30:50;;;;;;;3.60;3.00;;;;;;;27.08;40.58;100609.88;154023;1101;103160;-77
2021/06/17 12:34:06;;;;;;;3.95;3.00;;;;;;;27.07;40.56;100605.50;154005;1101;103128;-76
2021/06/17 12:37:09;;;;;;;4.63;2.90;;;;;;;27.06;40.16;100598.34;154030;1101;103218;-76
2021/06/17 12:40:25;;;;;;;3.67;2.80;;;;;;;27.05;40.23;100607.66;154048;1101;103233;-77
2021/06/17 12:43:29;;;;;;;3.23;2.80;;;;;;;27.07;40.54;100591.80;154019;1101;103297;-76
2021/06/17 12:46:36;;;;;;;3.70;2.70;;;;;;;27.07;39.23;100591.80;153969;1101;103189;-76
2021/06/17 12:53:06;;;;;;;3.03;2.57;;;;;;;26.97;39.38;100582.37;153953;1101;103192;-76
2021/06/17 12:56:09;;;;;;;3.27;2.97;;;;;;;27.00;39.66;100581.02;153976;1101;103269;-77
2021/06/17 12:59:12;;;;;;;3.20;2.90;;;;;;;27.06;39.72;100576.44;153943;1093;103298;-76
2021/06/17 13:02:18;;;;;;;3.00;2.43;;;;;;;27.05;39.39;100574.80;154044;1101;103187;-77
2021/06/17 13:05:22;;;;;;;3.63;2.80;;;;;;;27.08;39.26;100574.27;153971;1101;103130;-77
2021/06/17 13:08:25;;;;;;;4.07;2.67;;;;;;;27.13;39.13;100571.61;153943;1101;103091;-77
2021/06/17 13:11:30;;;;;;;3.10;2.80;;;;;;;27.19;39.30;100576.88;154024;1101;103211;-77
2021/06/17 13:14:33;;;;;;;2.90;2.60;;;;;;;27.20;38.99;100577.72;154060;1101;103228;-77
2021/06/17 13:17:38;;;;;;;2.50;2.30;;;;;;;27.15;38.95;100580.39;154036;1093;103143;-77
2021/06/17 13:20:44;;;;;;;4.30;2.67;;;;;;;27.20;39.31;100577.72;154050;1101;103517;-76
2021/06/17 13:23:47;;;;;;;2.77;2.27;;;;;;;27.26;38.65;100576.72;154106;1093;103119;-76
2021/06/17 13:27:10;;;;;;;2.70;2.50;;;;;;;27.27;38.99;100572.89;153990;1093;103278;-76
2021/06/17 13:30:23;;;;;;;3.77;2.67;;;;;;;27.31;37.94;100574.05;154024;1101;103256;-78
2021/06/17 13:33:27;;;;;;;4.53;3.17;;;;;;;27.35;38.43;100569.71;153996;1101;103199;-75
2021/06/17 13:36:30;;;;;;;4.07;2.50;;;;;;;27.39;38.55;100580.98;154074;1101;103128;-76
2021/06/17 13:39:33;;;;;;;2.80;2.40;;;;;;;27.36;37.96;100582.31;153998;1101;103122;-75
2021/06/17 13:42:39;;;;;;;3.27;2.53;;;;;;;27.37;38.19;100567.54;154027;1101;103225;-76
2021/06/17 13:45:42;;;;;;;4.03;2.83;;;;;;;27.42;38.12;100574.98;154038;1093;103221;-76
2021/06/17 13:48:46;;;;;;;2.90;2.30;;;;;;;27.45;37.83;100576.39;154110;1101;103267;-76
2021/06/17 13:51:50;;;;;;;2.60;2.40;;;;;;;27.42;37.89;100570.31;153985;1093;103221;-76
2021/06/17 13:54:53;;;;;;;3.73;2.53;;;;;;;27.45;37.54;100577.22;153983;1101;103499;-77
2021/06/17 13:57:56;;;;;;;5.27;2.50;;;;;;;27.45;37.82;100576.39;153969;1101;103223;-76
2021/06/17 14:01:02;;;;;;;4.07;2.40;;;;;;;27.44;37.52;100567.32;153946;1093;103184;-77
2021/06/17 14:04:06;;;;;;;3.67;2.20;;;;;;;27.39;37.10;100568.11;154046;1101;103215;-76
2021/06/17 14:07:09;;;;;;;5.37;2.70;;;;;;;27.33;37.31;100566.41;153971;1093;103560;-76